createdAt,value
2018-11-07T00:01:25.169Z,7.10
2018-11-07T00:03:52.973Z,7.20
2018-11-07T00:06:21.153Z,7.30
2018-11-07T00:08:48.856Z,7.30
2018-11-07T00:11:16.714Z,7.30
2018-11-07T00:13:44.686Z,7.40
2018-11-07T00:16:12.404Z,7.40
2018-11-07T00:18:40.093Z,7.50
2018-11-07T00:21:07.931Z,7.50
2018-11-07T00:23:35.681Z,7.50
2018-11-07T00:26:03.474Z,7.50
2018-11-07T00:28:31.236Z,7.50
2018-11-07T00:30:59.022Z,7.50
2018-11-07T00:33:26.744Z,7.50
2018-11-07T00:35:54.540Z,7.60
2018-11-07T00:38:22.251Z,7.60
2018-11-07T00:40:50.016Z,7.60
2018-11-07T00:43:17.828Z,7.60
2018-11-07T00:45:45.515Z,7.60
2018-11-07T00:48:13.197Z,7.60
2018-11-07T00:50:40.948Z,7.60
2018-11-07T00:53:08.642Z,7.60
2018-11-07T00:55:36.316Z,7.60
2018-11-07T00:58:04.490Z,7.70
2018-11-07T01:00:32.103Z,7.70
2018-11-07T01:03:00.700Z,7.70
2018-11-07T01:05:28.427Z,7.70
2018-11-07T01:07:56.399Z,7.70
2018-11-07T01:10:24.200Z,7.70
2018-11-07T01:12:52.126Z,7.70
2018-11-07T01:15:20.380Z,7.70
2018-11-07T01:17:48.207Z,7.70
2018-11-07T01:20:15.997Z,7.70
2018-11-07T01:22:44.310Z,7.70
2018-11-07T01:25:12.187Z,7.70
2018-11-07T01:27:39.886Z,7.70
2018-11-07T01:30:09.947Z,7.70
2018-11-07T01:32:37.939Z,7.70
2018-11-07T01:35:05.882Z,7.70
2018-11-07T01:37:33.722Z,7.70
2018-11-07T01:40:01.567Z,7.70
2018-11-07T01:42:29.679Z,7.70
2018-11-07T01:44:57.979Z,7.70
2018-11-07T01:47:25.997Z,7.70
2018-11-07T01:49:53.758Z,7.60
2018-11-07T01:52:21.554Z,7.60
2018-11-07T01:54:49.332Z,7.60
2018-11-07T01:57:17.098Z,7.50
2018-11-07T01:59:44.875Z,7.50
2018-11-07T02:02:12.514Z,7.50
2018-11-07T02:04:40.301Z,7.40
2018-11-07T02:07:08.403Z,7.40
2018-11-07T02:09:36.143Z,7.40
2018-11-07T02:12:03.905Z,7.40
2018-11-07T02:14:32.180Z,7.30
2018-11-07T02:16:59.974Z,7.30
2018-11-07T02:19:28.126Z,7.30
2018-11-07T02:21:55.774Z,7.30
2018-11-07T02:24:23.457Z,7.20
2018-11-07T02:26:51.449Z,7.30
2018-11-07T02:29:19.255Z,7.20
2018-11-07T02:31:47.139Z,7.20
2018-11-07T02:34:15.764Z,7.10
2018-11-07T02:36:43.865Z,7.10
2018-11-07T02:39:12.991Z,7.10
2018-11-07T02:41:41.185Z,7.10
2018-11-07T02:44:09.651Z,7.10
2018-11-07T02:46:37.400Z,7.10
2018-11-07T02:49:05.901Z,7.20
2018-11-07T02:51:33.552Z,7.20
2018-11-07T02:54:01.975Z,7.20
2018-11-07T02:56:30.776Z,7.20
2018-11-07T02:58:58.878Z,7.20
2018-11-07T03:01:27.691Z,7.20
2018-11-07T03:03:55.373Z,7.20
2018-11-07T03:06:23.107Z,7.20
2018-11-07T03:08:50.922Z,7.20
2018-11-07T03:11:19.070Z,7.10
2018-11-07T03:13:46.748Z,7.10
2018-11-07T03:16:14.455Z,7.10
2018-11-07T03:18:42.226Z,7.10
2018-11-07T03:21:09.918Z,7.00
2018-11-07T03:23:37.762Z,7.00
2018-11-07T03:26:05.536Z,7.00
2018-11-07T03:28:33.281Z,7.00
2018-11-07T03:31:01.082Z,7.00
2018-11-07T03:33:28.863Z,6.90
2018-11-07T03:35:56.572Z,6.90
2018-11-07T03:38:24.336Z,6.80
2018-11-07T03:40:52.004Z,6.80
2018-11-07T03:43:19.775Z,6.70
2018-11-07T03:45:53.231Z,6.70
2018-11-07T03:48:21.058Z,6.60
2018-11-07T03:50:49.041Z,6.60
2018-11-07T03:53:16.942Z,6.60
2018-11-07T03:55:44.636Z,6.60
2018-11-07T03:58:12.317Z,6.60
2018-11-07T04:00:40.080Z,6.60
2018-11-07T04:03:07.743Z,6.60
2018-11-07T04:05:36.259Z,6.60
2018-11-07T04:08:05.253Z,6.60
2018-11-07T04:10:33.643Z,6.60
2018-11-07T04:13:01.268Z,6.60
2018-11-07T04:15:29.115Z,6.50
2018-11-07T04:17:56.810Z,6.50
2018-11-07T04:20:24.508Z,6.50
2018-11-07T04:22:52.367Z,6.50
2018-11-07T04:25:20.321Z,6.40
2018-11-07T04:27:48.128Z,6.40
2018-11-07T04:30:16.282Z,6.30
2018-11-07T04:32:44.109Z,6.30
2018-11-07T04:35:12.505Z,6.30
2018-11-07T04:37:41.047Z,6.30
2018-11-07T04:40:10.467Z,6.20
2018-11-07T04:42:38.341Z,6.20
2018-11-07T04:45:06.509Z,6.20
2018-11-07T04:47:34.221Z,6.20
2018-11-07T04:50:02.338Z,6.10
2018-11-07T04:52:30.052Z,6.10
2018-11-07T04:54:58.478Z,6.00
2018-11-07T04:57:26.567Z,6.00
2018-11-07T04:59:54.399Z,6.00
2018-11-07T05:02:22.495Z,6.00
2018-11-07T05:04:50.588Z,5.90
2018-11-07T05:07:18.465Z,5.90
2018-11-07T05:09:46.376Z,5.90
2018-11-07T05:12:14.382Z,5.90
2018-11-07T05:14:42.357Z,5.90
2018-11-07T05:17:10.596Z,5.90
2018-11-07T05:19:38.392Z,5.80
2018-11-07T05:22:07.087Z,5.80
2018-11-07T05:24:37.850Z,5.80
2018-11-07T05:27:05.780Z,5.80
2018-11-07T05:29:33.987Z,5.80
2018-11-07T05:32:01.907Z,5.80
2018-11-07T05:34:49.522Z,5.80
2018-11-07T05:37:17.944Z,5.80
2018-11-07T05:39:47.160Z,5.70
2018-11-07T05:42:14.835Z,5.70
2018-11-07T05:44:42.619Z,5.80
2018-11-07T05:47:10.505Z,5.70
2018-11-07T05:49:38.279Z,5.70
2018-11-07T05:52:06.291Z,5.70
2018-11-07T05:54:33.928Z,5.70
2018-11-07T05:57:01.954Z,5.60
2018-11-07T05:59:30.133Z,5.70
2018-11-07T06:01:57.792Z,5.60
2018-11-07T06:04:26.511Z,5.60
2018-11-07T06:06:54.385Z,5.60
2018-11-07T06:09:22.043Z,5.60
2018-11-07T06:11:49.832Z,5.60
2018-11-07T06:14:17.640Z,5.60
2018-11-07T06:16:45.787Z,5.60
2018-11-07T06:19:14.868Z,5.60
2018-11-07T06:21:42.630Z,5.60
2018-11-07T06:24:10.267Z,5.60
2018-11-07T06:26:37.925Z,5.60
2018-11-07T06:29:06.335Z,5.50
2018-11-07T06:31:34.196Z,5.50
2018-11-07T06:34:02.108Z,5.40
2018-11-07T06:36:29.706Z,5.40
2018-11-07T06:38:57.475Z,5.40
2018-11-07T06:41:25.115Z,5.40
2018-11-07T06:43:53.107Z,5.40
2018-11-07T06:46:20.871Z,5.50
2018-11-07T06:48:48.726Z,5.70
2018-11-07T06:51:16.637Z,6.00
2018-11-07T06:53:44.572Z,6.30
2018-11-07T06:56:12.322Z,6.50
2018-11-07T06:58:40.103Z,6.50
2018-11-07T07:01:07.903Z,6.50
2018-11-07T07:03:35.735Z,6.60
2018-11-07T07:06:03.447Z,6.60
2018-11-07T07:08:31.187Z,6.60
2018-11-07T07:10:59.143Z,6.60
2018-11-07T07:13:27.687Z,6.60
2018-11-07T07:15:56.179Z,6.60
2018-11-07T07:18:23.874Z,6.60
2018-11-07T07:20:52.101Z,6.60
2018-11-07T07:23:19.860Z,6.60
2018-11-07T07:25:47.592Z,6.60
2018-11-07T07:28:15.377Z,6.70
2018-11-07T07:30:43.066Z,6.70
2018-11-07T07:33:11.059Z,6.70
2018-11-07T07:35:38.839Z,6.80
2018-11-07T07:38:06.733Z,6.90
2018-11-07T07:40:34.431Z,7.10
2018-11-07T07:43:02.069Z,7.80
2018-11-07T07:45:30.401Z,8.90
2018-11-07T07:47:58.070Z,9.70
2018-11-07T07:50:25.833Z,10.10
2018-11-07T07:52:53.588Z,10.40
2018-11-07T07:55:21.380Z,10.90
2018-11-07T07:57:49.084Z,11.80
2018-11-07T08:00:18.103Z,13.00
2018-11-07T08:02:47.014Z,14.70
2018-11-07T08:05:14.721Z,16.80
2018-11-07T08:07:42.909Z,18.90
2018-11-07T08:10:14.800Z,20.80
2018-11-07T08:12:43.045Z,22.70
2018-11-07T08:15:11.233Z,24.20
2018-11-07T08:17:39.906Z,25.30
2018-11-07T08:20:09.087Z,26.20
2018-11-07T08:22:36.949Z,27.10
2018-11-07T08:25:04.708Z,27.80
2018-11-07T08:27:32.415Z,28.50
2018-11-07T08:30:00.107Z,29.30
2018-11-07T08:32:27.753Z,30.10
2018-11-07T08:34:55.488Z,30.50
2018-11-07T08:37:23.213Z,30.90
2018-11-07T08:39:51.524Z,31.10
2018-11-07T08:42:21.080Z,30.70
2018-11-07T08:44:48.733Z,30.40
2018-11-07T08:47:16.396Z,30.90
2018-11-07T08:49:44.092Z,31.80
2018-11-07T08:52:11.789Z,32.60
2018-11-07T08:54:39.451Z,33.40
2018-11-07T08:57:07.151Z,33.80
2018-11-07T08:59:34.808Z,33.20
2018-11-07T09:02:02.576Z,33.10
2018-11-07T09:04:30.183Z,31.90
2018-11-07T09:06:57.838Z,31.90
2018-11-07T09:09:25.893Z,32.60
2018-11-07T09:11:53.564Z,32.30
2018-11-07T09:14:21.195Z,32.30
2018-11-07T09:16:48.928Z,33.40
2018-11-07T09:19:17.335Z,34.60
2018-11-07T09:21:52.332Z,35.70
2018-11-07T09:24:23.457Z,36.80
2018-11-07T09:26:51.239Z,37.60
2018-11-07T09:29:19.043Z,38.00
2018-11-07T09:31:46.669Z,38.00
2018-11-07T09:34:14.344Z,36.40
2018-11-07T09:36:42.036Z,35.60
2018-11-07T09:39:10.917Z,35.40
2018-11-07T09:41:38.607Z,35.10
2018-11-07T09:44:06.654Z,35.50
2018-11-07T09:46:34.637Z,36.40
2018-11-07T09:49:02.912Z,37.40
2018-11-07T09:51:30.840Z,38.50
2018-11-07T09:53:58.785Z,39.30
2018-11-07T09:56:26.422Z,40.10
2018-11-07T09:58:54.096Z,41.00
2018-11-07T10:01:21.869Z,41.40
2018-11-07T10:03:49.796Z,41.80
2018-11-07T10:06:17.468Z,42.30
2018-11-07T10:08:45.193Z,42.40
2018-11-07T10:11:13.379Z,42.60
2018-11-07T10:13:41.136Z,42.80
2018-11-07T10:16:08.844Z,43.30
2018-11-07T10:18:36.566Z,43.70
2018-11-07T10:21:04.638Z,44.00
2018-11-07T10:23:32.410Z,44.30
2018-11-07T10:26:00.143Z,44.60
2018-11-07T10:28:28.088Z,44.80
2018-11-07T10:30:55.751Z,45.00
2018-11-07T10:33:23.470Z,45.20
2018-11-07T10:35:51.205Z,45.20
2018-11-07T10:38:19.038Z,45.20
2018-11-07T10:40:46.744Z,45.20
2018-11-07T10:43:14.445Z,45.00
2018-11-07T10:45:42.186Z,44.80
2018-11-07T10:48:09.943Z,44.80
2018-11-07T10:50:37.657Z,44.80
2018-11-07T10:53:05.396Z,44.80
2018-11-07T10:55:33.140Z,44.60
2018-11-07T10:58:00.800Z,44.20
2018-11-07T11:00:34.143Z,43.60
2018-11-07T11:03:13.151Z,43.60
2018-11-07T11:05:41.228Z,43.00
2018-11-07T11:08:09.397Z,43.10
2018-11-07T11:10:37.842Z,43.50
2018-11-07T11:13:05.628Z,43.10
2018-11-07T11:15:33.281Z,42.80
2018-11-07T11:18:01.117Z,43.00
2018-11-07T11:20:29.090Z,43.10
2018-11-07T11:22:57.520Z,43.20
2018-11-07T11:25:25.229Z,43.30
2018-11-07T11:27:52.904Z,43.40
2018-11-07T11:30:20.658Z,43.60
2018-11-07T11:32:48.343Z,43.80
2018-11-07T11:35:16.095Z,43.90
2018-11-07T11:37:43.668Z,42.90
2018-11-07T11:40:13.419Z,42.50
2018-11-07T11:42:42.219Z,42.20
2018-11-07T11:45:11.600Z,42.50
2018-11-07T11:47:39.777Z,42.80
2018-11-07T11:50:10.320Z,41.80
2018-11-07T11:52:38.860Z,39.70
2018-11-07T11:55:06.570Z,38.30
2018-11-07T11:57:34.263Z,38.10
2018-11-07T12:00:02.372Z,37.40
2018-11-07T12:02:29.637Z,37.00
2018-11-07T12:04:57.445Z,36.70
2018-11-07T12:07:25.152Z,36.70
2018-11-07T12:09:54.132Z,35.90
2018-11-07T12:12:22.427Z,35.80
2018-11-07T12:14:51.144Z,34.80
2018-11-07T12:17:18.931Z,34.20
2018-11-07T12:19:47.665Z,34.70
2018-11-07T12:22:15.355Z,34.60
2018-11-07T12:24:43.045Z,34.20
2018-11-07T12:27:10.760Z,34.20
2018-11-07T12:29:38.563Z,34.70
2018-11-07T12:32:06.244Z,34.60
2018-11-07T12:34:34.019Z,34.60
2018-11-07T12:37:01.762Z,34.30
2018-11-07T12:39:29.475Z,34.40
2018-11-07T12:41:57.757Z,34.30
2018-11-07T12:44:25.494Z,34.20
2018-11-07T12:46:53.229Z,33.10
2018-11-07T12:49:21.564Z,32.70
2018-11-07T12:54:43.297Z,33.10
2018-11-07T12:57:11.071Z,33.50
2018-11-07T12:59:39.008Z,33.90
2018-11-07T13:02:06.691Z,33.20
2018-11-07T13:04:34.489Z,32.80
2018-11-07T13:07:02.175Z,32.50
2018-11-07T13:09:29.899Z,31.90
2018-11-07T13:11:57.636Z,31.50
2018-11-07T13:14:25.922Z,31.80
2018-11-07T13:16:53.671Z,31.90
2018-11-07T13:19:21.452Z,31.80
2018-11-07T13:21:49.942Z,31.70
2018-11-07T13:24:17.776Z,31.30
2018-11-07T13:26:45.452Z,30.80
2018-11-07T13:29:13.140Z,30.70
2018-11-07T13:31:40.892Z,30.50
2018-11-07T13:34:08.681Z,30.20
2018-11-07T13:36:36.431Z,29.90
2018-11-07T13:39:07.681Z,29.40
2018-11-07T13:41:35.133Z,29.40
2018-11-07T13:44:02.824Z,29.60
2018-11-07T13:46:30.524Z,29.40
2018-11-07T13:48:58.381Z,28.90
2018-11-07T13:51:26.078Z,27.90
2018-11-07T13:53:53.791Z,27.00
2018-11-07T13:56:21.492Z,26.20
2018-11-07T13:58:49.220Z,25.60
2018-11-07T14:01:16.972Z,25.00
2018-11-07T14:03:44.663Z,24.10
2018-11-07T14:06:12.444Z,23.50
2018-11-07T14:08:40.185Z,23.00
2018-11-07T14:11:07.904Z,22.50
2018-11-07T14:13:35.717Z,22.10
2018-11-07T14:16:03.475Z,22.00
2018-11-07T14:18:31.279Z,22.10
2018-11-07T14:20:59.284Z,22.50
2018-11-07T14:23:26.985Z,22.90
2018-11-07T14:25:54.772Z,23.70
2018-11-07T14:28:22.686Z,24.40
2018-11-07T14:30:50.640Z,25.10
2018-11-07T14:33:18.432Z,25.20
2018-11-07T14:35:46.163Z,25.00
2018-11-07T14:38:14.133Z,24.70
2018-11-07T14:40:41.932Z,24.10
2018-11-07T14:43:10.355Z,23.60
2018-11-07T14:45:38.774Z,23.20
2018-11-07T14:48:06.510Z,22.70
2018-11-07T14:50:34.412Z,22.30
2018-11-07T14:53:02.172Z,21.90
2018-11-07T14:55:30.074Z,21.50
2018-11-07T14:57:58.398Z,21.20
2018-11-07T15:00:26.047Z,21.00
2018-11-07T15:02:53.717Z,20.70
2018-11-07T15:05:21.729Z,20.50
2018-11-07T15:07:49.888Z,20.20
2018-11-07T15:10:18.008Z,19.90
2018-11-07T15:12:45.916Z,19.80
2018-11-07T15:15:15.042Z,19.60
2018-11-07T15:17:42.846Z,19.40
2018-11-07T15:20:12.084Z,19.20
2018-11-07T15:22:40.032Z,19.00
2018-11-07T15:25:10.184Z,18.90
2018-11-07T15:27:38.145Z,18.70
2018-11-07T15:30:07.898Z,18.50
2018-11-07T15:32:35.784Z,18.30
2018-11-07T15:35:04.428Z,18.20
2018-11-07T15:37:32.234Z,17.90
2018-11-07T15:40:00.009Z,17.80
2018-11-07T15:42:27.919Z,17.60
2018-11-07T15:44:55.765Z,17.40
2018-11-07T15:47:23.609Z,17.20
2018-11-07T15:49:57.011Z,17.00
2018-11-07T15:52:24.834Z,16.80
2018-11-07T15:54:52.535Z,16.60
2018-11-07T15:57:21.032Z,16.40
2018-11-07T15:59:48.815Z,16.30
2018-11-07T16:02:16.457Z,16.10
2018-11-07T16:04:44.278Z,15.90
2018-11-07T16:07:12.028Z,15.80
2018-11-07T16:09:40.100Z,15.70
2018-11-07T16:12:07.824Z,15.60
2018-11-07T16:14:35.595Z,15.50
2018-11-07T16:17:03.288Z,15.40
2018-11-07T16:19:30.976Z,15.30
2018-11-07T16:21:58.699Z,15.20
2018-11-07T16:24:26.477Z,15.10
2018-11-07T16:26:54.668Z,15.00
2018-11-07T16:29:23.071Z,14.90
2018-11-07T16:31:50.848Z,14.80
2018-11-07T16:34:19.675Z,14.70
2018-11-07T16:36:47.483Z,14.60
2018-11-07T16:39:15.885Z,14.50
2018-11-07T16:41:43.781Z,14.50
2018-11-07T16:44:11.302Z,14.30
2018-11-07T16:46:38.996Z,14.10
2018-11-07T16:49:06.716Z,13.90
2018-11-07T16:51:34.423Z,13.80
2018-11-07T16:54:02.808Z,13.60
2018-11-07T16:56:30.543Z,13.40
2018-11-07T16:58:58.545Z,13.30
2018-11-07T17:01:26.268Z,13.30
2018-11-07T17:03:53.967Z,13.20
2018-11-07T17:06:21.752Z,13.10
2018-11-07T17:08:49.560Z,12.90
2018-11-07T17:11:17.470Z,12.80
2018-11-07T17:13:45.223Z,12.70
2018-11-07T17:16:12.870Z,12.60
2018-11-07T17:18:40.505Z,12.50
2018-11-07T17:21:08.311Z,12.40
2018-11-07T17:23:37.140Z,12.30
2018-11-07T17:26:05.313Z,12.20
2018-11-07T17:28:33.058Z,12.10
2018-11-07T17:31:01.048Z,12.00
2018-11-07T17:33:28.799Z,12.00
2018-11-07T17:35:56.638Z,11.90
2018-11-07T17:38:24.531Z,11.80
2018-11-07T17:40:52.268Z,11.70
2018-11-07T17:43:21.059Z,11.60
2018-11-07T17:45:49.198Z,11.50
2018-11-07T17:48:16.948Z,11.40
2018-11-07T17:50:44.662Z,11.30
2018-11-07T17:53:12.487Z,11.20
2018-11-07T17:55:40.299Z,11.10
2018-11-07T17:58:08.157Z,11.10
2018-11-07T18:00:36.131Z,11.00
2018-11-07T18:03:04.107Z,11.00
2018-11-07T18:05:32.010Z,10.90
2018-11-07T18:07:59.835Z,10.90
2018-11-07T18:10:27.615Z,10.80
2018-11-07T18:12:55.603Z,10.80
2018-11-07T18:15:23.375Z,10.80
2018-11-07T18:17:51.135Z,10.80
2018-11-07T18:20:19.380Z,10.80
2018-11-07T18:22:47.572Z,10.70
2018-11-07T18:25:16.195Z,10.70
2018-11-07T18:27:44.323Z,10.70
2018-11-07T18:30:13.748Z,10.60
2018-11-07T18:32:42.413Z,10.60
2018-11-07T18:35:11.786Z,10.60
2018-11-07T18:37:39.572Z,10.50
2018-11-07T18:40:09.494Z,10.50
2018-11-07T18:42:37.558Z,10.50
2018-11-07T18:45:06.772Z,10.50
2018-11-07T18:47:34.656Z,10.50
2018-11-07T18:50:02.660Z,10.40
2018-11-07T18:52:31.144Z,10.30
2018-11-07T18:54:58.972Z,10.30
2018-11-07T18:57:26.717Z,10.20
2018-11-07T18:59:54.662Z,10.10
2018-11-07T19:02:22.426Z,10.10
2018-11-07T19:04:50.417Z,10.00
2018-11-07T19:07:18.284Z,9.90
2018-11-07T19:09:46.015Z,9.90
2018-11-07T19:12:13.907Z,9.80
2018-11-07T19:14:42.048Z,9.70
2018-11-07T19:17:10.292Z,9.70
2018-11-07T19:19:38.329Z,9.60
2018-11-07T19:22:06.122Z,9.50
2018-11-07T19:24:33.984Z,9.50
2018-11-07T19:27:01.771Z,9.40
2018-11-07T19:29:29.580Z,9.40
2018-11-07T19:31:57.375Z,9.30
2018-11-07T19:34:25.254Z,9.30
2018-11-07T19:36:52.932Z,9.30
2018-11-07T19:39:20.815Z,9.30
2018-11-07T19:41:48.652Z,9.20
2018-11-07T19:44:16.614Z,9.20
2018-11-07T19:46:44.484Z,9.20
2018-11-07T19:49:12.410Z,9.20
2018-11-07T19:51:40.743Z,9.20
2018-11-07T19:54:08.567Z,9.10
2018-11-07T19:56:36.239Z,9.10
2018-11-07T19:59:05.298Z,9.10
2018-11-07T20:01:33.344Z,9.10
2018-11-07T20:04:01.044Z,9.10
2018-11-07T20:06:28.956Z,9.10
2018-11-07T20:08:57.033Z,9.10
2018-11-07T20:11:25.008Z,9.10
2018-11-07T20:13:52.864Z,9.10
2018-11-07T20:16:20.752Z,9.10
2018-11-07T20:18:48.575Z,9.10
2018-11-07T20:21:16.576Z,9.00
2018-11-07T20:23:45.079Z,8.90
2018-11-07T20:26:12.972Z,8.90
2018-11-07T20:28:48.850Z,8.90
2018-11-07T20:31:16.958Z,8.90
2018-11-07T20:33:46.043Z,8.90
2018-11-07T20:36:14.196Z,9.00
2018-11-07T20:38:41.957Z,9.00
2018-11-07T20:41:10.671Z,9.00
2018-11-07T20:43:38.388Z,9.00
2018-11-07T20:46:06.204Z,9.10
2018-11-07T20:48:33.947Z,9.10
2018-11-07T20:51:01.657Z,9.10
2018-11-07T20:53:29.437Z,9.10
2018-11-07T20:55:57.154Z,9.20
2018-11-07T20:58:24.950Z,9.20
2018-11-07T21:00:52.989Z,9.20
2018-11-07T21:03:24.650Z,9.30
2018-11-07T21:05:57.266Z,9.30
2018-11-07T21:08:25.205Z,9.30
2018-11-07T21:10:52.960Z,9.30
2018-11-07T21:13:20.727Z,9.30
2018-11-07T21:15:48.569Z,9.30
2018-11-07T21:18:16.740Z,9.30
2018-11-07T21:20:44.578Z,9.30
2018-11-07T21:23:12.680Z,9.40
2018-11-07T21:25:40.431Z,9.40
2018-11-07T21:28:08.536Z,9.40
2018-11-07T21:30:36.331Z,9.40
2018-11-07T21:33:04.192Z,9.50
2018-11-07T21:35:31.877Z,9.50
2018-11-07T21:37:59.707Z,9.50
2018-11-07T21:40:27.469Z,9.50
2018-11-07T21:42:55.390Z,9.50
2018-11-07T21:45:23.140Z,9.50
2018-11-07T21:47:50.859Z,9.60
2018-11-07T21:50:18.777Z,9.60
2018-11-07T21:52:48.227Z,9.60
2018-11-07T21:55:16.060Z,9.70
2018-11-07T21:57:43.768Z,9.70
2018-11-07T22:00:13.946Z,9.70
2018-11-07T22:02:42.228Z,9.70
2018-11-07T22:05:10.632Z,9.80
2018-11-07T22:07:38.885Z,9.70
2018-11-07T22:10:07.507Z,9.70
2018-11-07T22:12:35.644Z,9.70
2018-11-07T22:15:04.305Z,9.70
2018-11-07T22:17:32.030Z,9.70
2018-11-07T22:20:00.108Z,9.70
2018-11-07T22:22:27.927Z,9.80
2018-11-07T22:24:55.738Z,9.80
2018-11-07T22:27:23.701Z,9.80
2018-11-07T22:29:51.452Z,9.80
2018-11-07T22:32:19.744Z,9.80
2018-11-07T22:34:47.904Z,9.80
2018-11-07T22:37:15.746Z,9.80
2018-11-07T22:39:43.488Z,9.70
2018-11-07T22:42:12.506Z,9.70
2018-11-07T22:44:40.673Z,9.70
2018-11-07T22:47:08.921Z,9.70
2018-11-07T22:49:36.892Z,9.70
2018-11-07T22:52:05.005Z,9.60
2018-11-07T22:54:32.777Z,9.50
2018-11-07T22:57:00.772Z,9.50
2018-11-07T22:59:28.588Z,9.50
2018-11-07T23:01:56.271Z,9.40
2018-11-07T23:04:24.032Z,9.50
2018-11-07T23:06:51.801Z,9.50
2018-11-07T23:09:20.017Z,9.50
2018-11-07T23:11:47.893Z,9.50
2018-11-07T23:14:15.596Z,9.50
2018-11-07T23:16:43.829Z,9.50
2018-11-07T23:19:12.065Z,9.50
2018-11-07T23:21:39.827Z,9.60
2018-11-07T23:24:08.677Z,9.60
2018-11-07T23:26:36.359Z,9.60
2018-11-07T23:29:04.105Z,9.60
2018-11-07T23:31:31.936Z,9.60
2018-11-07T23:34:00.449Z,9.60
2018-11-07T23:36:28.949Z,9.60
2018-11-07T23:38:57.184Z,9.60
2018-11-07T23:41:24.932Z,9.60
2018-11-07T23:43:52.706Z,9.50
2018-11-07T23:46:21.695Z,9.50
2018-11-07T23:48:49.358Z,9.40
2018-11-07T23:51:18.153Z,9.40
2018-11-07T23:53:46.059Z,9.40
2018-11-07T23:56:13.737Z,9.40
2018-11-07T23:58:41.632Z,9.40
